createdAt,value
2019-02-24T00:00:45.689Z,4.33
2019-02-24T00:01:28.972Z,4.65
2019-02-24T00:02:07.644Z,4.10
2019-02-24T00:02:47.167Z,3.37
2019-02-24T00:03:26.140Z,3.70
2019-02-24T00:04:04.756Z,4.12
2019-02-24T00:04:44.459Z,4.63
2019-02-24T00:05:23.057Z,3.40
2019-02-24T00:06:01.726Z,3.47
2019-02-24T00:06:40.435Z,4.37
2019-02-24T00:07:19.273Z,5.03
2019-02-24T00:07:57.987Z,7.97
2019-02-24T00:08:36.668Z,3.98
2019-02-24T00:09:15.685Z,4.22
2019-02-24T00:09:54.831Z,5.70
2019-02-24T00:10:34.169Z,3.45
2019-02-24T00:11:13.498Z,4.65
2019-02-24T00:11:52.356Z,3.98
2019-02-24T00:12:31.084Z,4.40
2019-02-24T00:13:09.778Z,4.65
2019-02-24T00:13:48.391Z,4.62
2019-02-24T00:14:27.279Z,5.15
2019-02-24T00:15:05.887Z,4.08
2019-02-24T00:15:45.131Z,7.37
2019-02-24T00:16:24.335Z,4.78
2019-02-24T00:17:03.753Z,3.95
2019-02-24T00:17:44.561Z,3.80
2019-02-24T00:18:24.073Z,3.25
2019-02-24T00:19:03.827Z,5.12
2019-02-24T00:19:43.057Z,3.95
2019-02-24T00:20:22.271Z,6.65
2019-02-24T00:21:01.048Z,3.60
2019-02-24T00:21:39.703Z,7.25
2019-02-24T00:22:18.403Z,4.45
2019-02-24T00:22:57.091Z,7.80
2019-02-24T00:23:36.078Z,3.83
2019-02-24T00:24:15.046Z,4.12
2019-02-24T00:24:54.292Z,3.70
2019-02-24T00:25:33.311Z,4.37
2019-02-24T00:26:12.503Z,5.75
2019-02-24T00:26:51.185Z,4.03
2019-02-24T00:27:30.156Z,3.58
2019-02-24T00:28:10.322Z,6.25
2019-02-24T00:28:48.945Z,4.17
2019-02-24T00:29:27.630Z,6.55
2019-02-24T00:30:06.433Z,3.75
2019-02-24T00:30:45.441Z,5.65
2019-02-24T00:31:24.603Z,4.70
2019-02-24T00:32:03.687Z,5.75
2019-02-24T00:32:42.411Z,4.27
2019-02-24T00:33:21.254Z,8.83
2019-02-24T00:34:00.462Z,4.33
2019-02-24T00:34:39.156Z,5.17
2019-02-24T00:35:17.851Z,7.17
2019-02-24T00:35:56.960Z,4.75
2019-02-24T00:36:36.192Z,5.90
2019-02-24T00:37:14.896Z,6.78
2019-02-24T00:37:53.594Z,6.45
2019-02-24T00:38:32.268Z,5.72
2019-02-24T00:39:11.781Z,5.20
2019-02-24T00:39:50.557Z,4.10
2019-02-24T00:40:29.442Z,3.95
2019-02-24T00:41:08.396Z,5.58
2019-02-24T00:41:47.779Z,4.87
2019-02-24T00:42:26.873Z,7.28
2019-02-24T00:43:05.953Z,5.20
2019-02-24T00:43:44.855Z,5.03
2019-02-24T00:44:25.512Z,5.12
2019-02-24T00:45:04.211Z,5.47
2019-02-24T00:45:43.717Z,6.40
2019-02-24T00:46:22.435Z,5.05
2019-02-24T00:47:01.033Z,4.47
2019-02-24T00:47:39.660Z,4.35
2019-02-24T00:48:18.850Z,4.75
2019-02-24T00:48:57.911Z,5.05
2019-02-24T00:49:37.052Z,6.55
2019-02-24T00:50:16.059Z,5.15
2019-02-24T00:50:55.360Z,7.03
2019-02-24T00:51:34.742Z,4.40
2019-02-24T00:52:14.260Z,6.22
2019-02-24T00:52:52.991Z,4.72
2019-02-24T00:53:31.750Z,7.65
2019-02-24T00:54:10.551Z,5.15
2019-02-24T00:54:49.327Z,5.50
2019-02-24T00:55:28.034Z,5.42
2019-02-24T00:56:06.764Z,4.85
2019-02-24T00:56:45.505Z,4.60
2019-02-24T00:57:24.224Z,4.30
2019-02-24T00:58:02.983Z,5.45
2019-02-24T00:58:43.041Z,6.33
2019-02-24T00:59:22.043Z,4.92
2019-02-24T01:00:00.651Z,8.85
2019-02-24T01:00:39.584Z,4.80
2019-02-24T01:01:18.327Z,4.08
2019-02-24T01:01:57.023Z,4.10
2019-02-24T01:02:35.735Z,5.07
2019-02-24T01:03:14.370Z,5.65
2019-02-24T01:03:53.235Z,5.97
2019-02-24T01:04:32.004Z,4.17
2019-02-24T01:05:10.818Z,4.28
2019-02-24T01:05:49.556Z,5.50
2019-02-24T01:06:28.347Z,6.05
2019-02-24T01:07:07.243Z,4.35
2019-02-24T01:07:46.027Z,4.08
2019-02-24T01:08:24.905Z,4.58
2019-02-24T01:09:03.607Z,5.10
2019-02-24T01:09:42.398Z,5.25
2019-02-24T01:10:21.203Z,3.77
2019-02-24T01:11:00.009Z,4.87
2019-02-24T01:11:38.796Z,4.85
2019-02-24T01:12:17.586Z,4.67
2019-02-24T01:12:56.590Z,4.12
2019-02-24T01:13:35.288Z,4.58
2019-02-24T01:14:15.078Z,5.55
2019-02-24T01:14:53.715Z,4.15
2019-02-24T01:15:32.322Z,6.97
2019-02-24T01:16:11.150Z,4.65
2019-02-24T01:16:50.707Z,4.15
2019-02-24T01:17:29.481Z,4.50
2019-02-24T01:18:08.178Z,6.12
2019-02-24T01:18:46.911Z,4.90
2019-02-24T01:19:25.602Z,5.20
2019-02-24T01:20:04.445Z,9.03
2019-02-24T01:20:43.191Z,5.13
2019-02-24T01:21:21.978Z,4.53
2019-02-24T01:22:00.790Z,5.12
2019-02-24T01:22:39.972Z,4.33
2019-02-24T01:23:18.639Z,3.80
2019-02-24T01:23:57.325Z,5.47
2019-02-24T01:24:36.019Z,6.17
2019-02-24T01:25:14.718Z,4.55
2019-02-24T01:25:53.388Z,4.90
2019-02-24T01:26:32.302Z,4.45
2019-02-24T01:27:12.647Z,4.80
2019-02-24T01:27:51.561Z,5.83
2019-02-24T01:28:30.773Z,5.05
2019-02-24T01:29:10.127Z,6.87
2019-02-24T01:29:49.422Z,10.05
2019-02-24T01:30:28.666Z,5.00
2019-02-24T01:31:08.002Z,5.30
2019-02-24T01:31:46.696Z,4.85
2019-02-24T01:32:25.352Z,4.33
2019-02-24T01:33:04.043Z,7.70
2019-02-24T01:33:42.652Z,4.80
2019-02-24T01:34:21.851Z,3.52
2019-02-24T01:35:01.393Z,4.75
2019-02-24T01:35:40.293Z,4.40
2019-02-24T01:36:19.588Z,5.75
2019-02-24T01:36:58.280Z,5.47
2019-02-24T01:37:37.862Z,10.05
2019-02-24T01:38:17.172Z,5.62
2019-02-24T01:38:56.318Z,10.20
2019-02-24T01:39:34.946Z,6.25
2019-02-24T01:40:13.707Z,4.20
2019-02-24T01:40:52.410Z,4.25
2019-02-24T01:41:31.118Z,4.67
2019-02-24T01:42:10.319Z,5.30
2019-02-24T01:42:49.834Z,4.78
2019-02-24T01:43:29.681Z,5.17
2019-02-24T01:44:08.311Z,5.22
2019-02-24T01:44:47.677Z,5.78
2019-02-24T01:45:26.439Z,4.87
2019-02-24T01:46:05.348Z,5.85
2019-02-24T01:46:44.270Z,11.17
2019-02-24T01:47:22.967Z,6.78
2019-02-24T01:48:01.760Z,13.45
2019-02-24T01:48:40.578Z,8.10
2019-02-24T01:49:19.287Z,6.05
2019-02-24T01:49:57.915Z,5.42
2019-02-24T01:50:37.052Z,6.03
2019-02-24T01:51:15.777Z,8.55
2019-02-24T01:51:54.753Z,7.35
2019-02-24T01:52:33.934Z,9.60
2019-02-24T01:53:13.205Z,6.95
2019-02-24T01:53:52.254Z,5.83
2019-02-24T01:54:31.747Z,5.90
2019-02-24T01:55:10.458Z,8.13
2019-02-24T01:55:49.859Z,6.70
2019-02-24T01:56:30.067Z,4.53
2019-02-24T01:57:08.800Z,6.20
2019-02-24T01:57:47.518Z,8.10
2019-02-24T01:58:34.577Z,5.83
2019-02-24T01:59:07.030Z,7.47
2019-02-24T01:59:46.496Z,7.80
2019-02-24T02:00:25.211Z,7.47
2019-02-24T02:01:04.240Z,5.60
2019-02-24T02:01:43.741Z,8.60
2019-02-24T02:02:23.064Z,9.65
2019-02-24T02:03:02.464Z,8.30
2019-02-24T02:03:41.223Z,6.40
2019-02-24T02:04:20.011Z,6.90
2019-02-24T02:04:58.773Z,7.90
2019-02-24T02:05:37.423Z,5.22
2019-02-24T02:06:16.060Z,5.33
2019-02-24T02:06:54.838Z,4.83
2019-02-24T02:07:34.312Z,11.10
2019-02-24T02:08:13.339Z,7.30
2019-02-24T02:08:52.842Z,6.40
2019-02-24T02:09:32.321Z,10.30
2019-02-24T02:10:11.063Z,5.92
2019-02-24T02:10:50.702Z,5.00
2019-02-24T02:11:30.064Z,7.40
2019-02-24T02:12:08.729Z,6.67
2019-02-24T02:12:47.388Z,9.30
2019-02-24T02:13:26.109Z,5.70
2019-02-24T02:14:05.208Z,6.20
2019-02-24T02:14:43.939Z,6.50
2019-02-24T02:15:22.690Z,7.37
2019-02-24T02:16:02.334Z,4.95
2019-02-24T02:16:41.332Z,6.40
2019-02-24T02:17:19.949Z,5.65
2019-02-24T02:17:58.562Z,4.80
2019-02-24T02:18:37.394Z,5.90
2019-02-24T02:19:16.052Z,5.65
2019-02-24T02:19:54.767Z,6.80
2019-02-24T02:20:33.453Z,6.42
2019-02-24T02:21:12.310Z,7.47
2019-02-24T02:21:51.479Z,5.87
2019-02-24T02:22:31.445Z,5.78
2019-02-24T02:23:10.341Z,7.10
2019-02-24T02:23:49.104Z,6.42
2019-02-24T02:24:27.868Z,5.87
2019-02-24T02:25:06.915Z,6.95
2019-02-24T02:25:45.880Z,8.40
2019-02-24T02:26:25.372Z,9.68
2019-02-24T02:27:04.035Z,23.62
2019-02-24T02:27:42.652Z,26.45
2019-02-24T02:28:21.334Z,15.08
2019-02-24T02:29:00.100Z,6.08
2019-02-24T02:29:38.726Z,11.68
2019-02-24T02:30:17.575Z,18.37
2019-02-24T02:30:56.631Z,11.18
2019-02-24T02:31:35.673Z,11.57
2019-02-24T02:32:15.463Z,15.80
2019-02-24T02:32:56.022Z,9.03
2019-02-24T02:33:35.216Z,9.63
2019-02-24T02:34:15.568Z,8.65
2019-02-24T02:34:54.240Z,10.00
2019-02-24T02:35:32.965Z,8.65
2019-02-24T02:36:12.367Z,14.47
2019-02-24T02:36:52.266Z,7.40
2019-02-24T02:37:31.174Z,7.30
2019-02-24T02:38:09.907Z,14.90
2019-02-24T02:38:48.564Z,6.95
2019-02-24T02:39:27.469Z,5.80
2019-02-24T02:40:06.407Z,7.70
2019-02-24T02:40:45.572Z,9.95
2019-02-24T02:41:24.943Z,10.23
2019-02-24T02:42:03.846Z,7.92
2019-02-24T02:42:43.190Z,8.13
2019-02-24T02:43:22.630Z,6.00
2019-02-24T02:44:01.231Z,8.03
2019-02-24T02:44:39.971Z,7.83
2019-02-24T02:45:18.748Z,7.97
2019-02-24T02:45:57.630Z,8.70
2019-02-24T02:46:36.750Z,6.17
2019-02-24T02:47:15.805Z,6.75
2019-02-24T02:47:55.228Z,8.03
2019-02-24T02:48:34.489Z,7.87
2019-02-24T02:49:13.537Z,7.62
2019-02-24T02:49:53.105Z,9.60
2019-02-24T02:50:32.508Z,8.45
2019-02-24T02:51:11.695Z,10.35
2019-02-24T02:51:51.200Z,7.08
2019-02-24T02:52:29.959Z,10.05
2019-02-24T02:53:08.611Z,10.95
2019-02-24T02:53:47.973Z,7.20
2019-02-24T02:54:26.787Z,13.22
2019-02-24T02:55:05.882Z,9.18
2019-02-24T02:55:45.223Z,8.40
2019-02-24T02:56:24.305Z,8.48
2019-02-24T02:57:03.054Z,6.30
2019-02-24T02:57:41.804Z,11.57
2019-02-24T02:58:21.697Z,10.10
2019-02-24T02:59:00.568Z,12.00
2019-02-24T02:59:39.269Z,13.00
2019-02-24T03:00:36.965Z,8.05
2019-02-24T03:01:15.635Z,6.97
2019-02-24T03:01:54.451Z,7.78
2019-02-24T03:02:33.156Z,7.70
2019-02-24T03:03:11.783Z,9.00
2019-02-24T03:03:50.526Z,8.00
2019-02-24T03:04:29.266Z,6.72
2019-02-24T03:05:07.965Z,9.35
2019-02-24T03:05:56.707Z,9.08
2019-02-24T03:06:51.573Z,7.87
2019-02-24T03:07:46.226Z,7.60
2019-02-24T03:08:42.944Z,8.20
2019-02-24T03:09:21.689Z,8.73
2019-02-24T03:10:02.765Z,7.72
2019-02-24T03:10:40.614Z,7.43
2019-02-24T03:11:19.311Z,8.30
2019-02-24T03:11:57.988Z,6.78
2019-02-24T03:12:36.771Z,7.70
2019-02-24T03:13:15.501Z,6.53
2019-02-24T03:13:54.466Z,7.20
2019-02-24T03:14:33.555Z,8.43
2019-02-24T03:15:12.357Z,8.08
2019-02-24T03:15:51.304Z,8.00
2019-02-24T03:16:30.723Z,11.68
2019-02-24T03:17:10.301Z,9.68
2019-02-24T03:17:49.937Z,7.58
2019-02-24T03:18:28.785Z,8.18
2019-02-24T03:19:07.519Z,8.83
2019-02-24T03:19:46.181Z,10.68
2019-02-24T03:20:25.157Z,8.25
2019-02-24T03:21:03.914Z,8.00
2019-02-24T03:21:45.265Z,10.68
2019-02-24T03:22:24.117Z,9.28
2019-02-24T03:23:02.880Z,10.20
2019-02-24T03:23:41.947Z,12.90
2019-02-24T03:24:20.768Z,10.08
2019-02-24T03:24:59.713Z,9.20
2019-02-24T03:25:38.647Z,7.92
2019-02-24T03:26:17.685Z,8.28
2019-02-24T03:26:56.301Z,8.15
2019-02-24T03:27:36.235Z,9.00
2019-02-24T03:28:14.962Z,8.23
2019-02-24T03:28:53.625Z,11.57
2019-02-24T03:29:32.529Z,8.93
2019-02-24T03:30:11.397Z,8.23
2019-02-24T03:30:50.899Z,8.60
2019-02-24T03:31:32.338Z,9.78
2019-02-24T03:32:11.771Z,12.75
2019-02-24T03:32:50.538Z,9.98
2019-02-24T03:33:29.834Z,9.43
2019-02-24T03:34:08.792Z,10.13
2019-02-24T03:34:47.511Z,10.23
2019-02-24T03:35:26.869Z,9.63
2019-02-24T03:36:05.534Z,9.88
2019-02-24T03:36:45.341Z,10.40
2019-02-24T03:37:24.643Z,10.13
2019-02-24T03:38:03.369Z,10.13
2019-02-24T03:38:42.174Z,9.20
2019-02-24T03:39:20.931Z,8.60
2019-02-24T03:40:00.091Z,11.75
2019-02-24T03:40:39.113Z,9.90
2019-02-24T03:41:17.786Z,9.33
2019-02-24T03:41:56.515Z,10.00
2019-02-24T03:42:35.156Z,9.43
2019-02-24T03:43:14.520Z,9.23
2019-02-24T03:43:54.007Z,10.08
2019-02-24T03:44:32.728Z,9.93
2019-02-24T03:45:12.181Z,10.45
2019-02-24T03:45:52.658Z,9.80
2019-02-24T03:46:31.388Z,8.70
2019-02-24T03:47:10.622Z,11.27
2019-02-24T03:47:50.030Z,9.00
2019-02-24T03:48:28.815Z,14.30
2019-02-24T03:49:07.444Z,9.53
2019-02-24T03:49:46.086Z,10.77
2019-02-24T03:50:24.744Z,9.80
2019-02-24T03:51:03.561Z,8.80
2019-02-24T03:51:42.330Z,9.30
2019-02-24T03:52:21.542Z,9.08
2019-02-24T03:53:00.942Z,8.90
2019-02-24T03:53:40.244Z,10.60
2019-02-24T03:54:19.558Z,14.03
2019-02-24T03:54:58.330Z,10.40
2019-02-24T03:55:37.266Z,10.38
2019-02-24T03:56:15.955Z,9.60
2019-02-24T03:56:54.660Z,10.23
2019-02-24T03:57:33.356Z,9.47
2019-02-24T03:58:13.858Z,10.10
2019-02-24T03:58:53.135Z,11.97
2019-02-24T03:59:50.711Z,9.33
2019-02-24T04:00:29.368Z,10.83
2019-02-24T04:01:07.975Z,10.43
2019-02-24T04:01:46.793Z,10.97
2019-02-24T04:02:25.562Z,10.17
2019-02-24T04:03:04.349Z,10.33
2019-02-24T04:03:43.286Z,10.55
2019-02-24T04:04:22.698Z,10.15
2019-02-24T04:05:01.830Z,11.30
2019-02-24T04:05:41.226Z,9.38
2019-02-24T04:06:20.764Z,10.40
2019-02-24T04:07:00.060Z,9.87
2019-02-24T04:07:39.379Z,9.27
2019-02-24T04:08:18.690Z,10.57
2019-02-24T04:08:57.414Z,11.20
2019-02-24T04:09:36.147Z,9.68
2019-02-24T04:10:14.892Z,9.90
2019-02-24T04:10:54.139Z,10.30
2019-02-24T04:11:33.088Z,10.07
2019-02-24T04:12:12.272Z,10.07
2019-02-24T04:12:51.490Z,10.30
2019-02-24T04:13:30.255Z,9.65
2019-02-24T04:14:10.853Z,9.13
2019-02-24T04:14:50.187Z,11.20
2019-02-24T04:15:30.005Z,11.53
2019-02-24T04:16:09.592Z,10.27
2019-02-24T04:16:48.245Z,10.77
2019-02-24T04:17:26.969Z,11.63
2019-02-24T04:18:05.655Z,9.30
2019-02-24T04:18:44.339Z,10.03
2019-02-24T04:19:23.614Z,10.33
2019-02-24T04:20:02.810Z,9.63
2019-02-24T04:20:42.006Z,12.47
2019-02-24T04:21:21.255Z,9.67
2019-02-24T04:22:00.626Z,9.70
2019-02-24T04:22:39.393Z,10.20
2019-02-24T04:23:18.525Z,11.00
2019-02-24T04:23:57.264Z,10.40
2019-02-24T04:24:35.959Z,12.00
2019-02-24T04:25:15.007Z,11.27
2019-02-24T04:25:53.704Z,9.07
2019-02-24T04:26:33.013Z,10.07
2019-02-24T04:27:12.200Z,10.60
2019-02-24T04:27:50.913Z,10.33
2019-02-24T04:28:30.390Z,11.57
2019-02-24T04:29:09.124Z,9.98
2019-02-24T04:29:47.767Z,11.27
2019-02-24T04:30:26.814Z,10.70
2019-02-24T04:31:06.024Z,10.80
2019-02-24T04:31:45.403Z,10.80
2019-02-24T04:32:25.093Z,12.35
2019-02-24T04:33:03.756Z,10.70
2019-02-24T04:33:42.436Z,10.57
2019-02-24T04:34:21.403Z,10.93
2019-02-24T04:35:00.038Z,11.53
2019-02-24T04:35:38.775Z,10.70
2019-02-24T04:36:18.310Z,10.80
2019-02-24T04:36:57.028Z,9.90
2019-02-24T04:37:36.120Z,11.53
2019-02-24T04:38:16.070Z,10.53
2019-02-24T04:38:55.401Z,11.90
2019-02-24T04:39:34.561Z,10.57
2019-02-24T04:40:13.943Z,9.67
2019-02-24T04:40:53.428Z,10.80
2019-02-24T04:41:32.078Z,10.50
2019-02-24T04:42:10.723Z,9.50
2019-02-24T04:42:49.484Z,13.83
2019-02-24T04:43:28.157Z,10.77
2019-02-24T04:44:07.061Z,12.00
2019-02-24T04:44:46.224Z,9.40
2019-02-24T04:45:25.759Z,10.13
2019-02-24T04:46:05.112Z,10.87
2019-02-24T04:46:44.269Z,9.60
2019-02-24T04:47:23.651Z,10.23
2019-02-24T04:48:02.859Z,11.53
2019-02-24T04:48:41.529Z,10.37
2019-02-24T04:49:20.266Z,11.77
2019-02-24T04:49:59.016Z,11.00
2019-02-24T04:50:55.934Z,10.70
2019-02-24T04:51:34.919Z,10.20
2019-02-24T04:52:14.402Z,10.23
2019-02-24T04:52:53.064Z,11.07
2019-02-24T04:53:31.799Z,10.37
2019-02-24T04:54:10.393Z,11.47
2019-02-24T04:54:49.087Z,10.80
2019-02-24T04:55:27.768Z,10.63
2019-02-24T04:56:06.414Z,10.40
2019-02-24T04:56:45.192Z,10.87
2019-02-24T04:57:24.001Z,11.00
2019-02-24T04:58:02.707Z,11.00
2019-02-24T04:58:41.350Z,11.47
2019-02-24T04:59:20.143Z,10.80
2019-02-24T04:59:58.784Z,13.17
2019-02-24T05:00:37.581Z,11.10
2019-02-24T05:01:16.282Z,10.47
2019-02-24T05:01:54.922Z,11.30
2019-02-24T05:02:33.589Z,11.60
2019-02-24T05:03:12.315Z,11.37
2019-02-24T05:03:51.062Z,11.50
2019-02-24T05:04:29.784Z,12.07
2019-02-24T05:05:08.552Z,11.10
2019-02-24T05:05:47.261Z,11.07
2019-02-24T05:06:25.942Z,11.33
2019-02-24T05:07:05.159Z,11.80
2019-02-24T05:07:43.866Z,12.30
2019-02-24T05:08:22.473Z,11.63
2019-02-24T05:09:01.162Z,11.23
2019-02-24T05:09:39.959Z,10.27
2019-02-24T05:10:18.668Z,11.17
2019-02-24T05:10:57.558Z,11.50
2019-02-24T05:11:36.787Z,11.50
2019-02-24T05:12:15.468Z,10.87
2019-02-24T05:12:54.169Z,11.60
2019-02-24T05:13:33.054Z,11.33
2019-02-24T05:14:11.869Z,11.77
2019-02-24T05:14:50.514Z,13.53
2019-02-24T05:15:29.412Z,11.77
2019-02-24T05:16:08.322Z,13.90
2019-02-24T05:16:47.020Z,11.60
2019-02-24T05:17:25.843Z,13.00
2019-02-24T05:18:04.398Z,11.93
2019-02-24T05:18:43.084Z,12.33
2019-02-24T05:19:21.963Z,12.47
2019-02-24T05:20:00.676Z,13.90
2019-02-24T05:20:39.286Z,11.67
2019-02-24T05:21:18.095Z,12.50
2019-02-24T05:21:56.753Z,11.53
2019-02-24T05:22:35.524Z,12.10
2019-02-24T05:23:14.221Z,13.00
2019-02-24T05:23:52.960Z,11.53
2019-02-24T05:24:31.714Z,11.60
2019-02-24T05:25:10.422Z,10.70
2019-02-24T05:25:49.043Z,11.97
2019-02-24T05:26:28.302Z,11.03
2019-02-24T05:27:07.688Z,13.50
2019-02-24T05:27:47.085Z,12.20
2019-02-24T05:28:26.283Z,11.63
2019-02-24T05:29:04.995Z,10.73
2019-02-24T05:29:46.116Z,13.93
2019-02-24T05:30:24.856Z,11.67
2019-02-24T05:31:03.584Z,11.90
2019-02-24T05:31:43.581Z,11.63
2019-02-24T05:32:22.523Z,11.37
2019-02-24T05:33:01.384Z,11.17
2019-02-24T05:33:40.349Z,12.27
2019-02-24T05:34:19.397Z,12.37
2019-02-24T05:34:58.830Z,11.63
2019-02-24T05:35:38.359Z,11.77
2019-02-24T05:36:18.351Z,13.20
2019-02-24T05:36:57.074Z,11.43
2019-02-24T05:37:36.562Z,13.07
2019-02-24T05:38:15.233Z,12.60
2019-02-24T05:38:53.954Z,12.60
2019-02-24T05:39:32.618Z,12.70
2019-02-24T05:40:11.322Z,12.53
2019-02-24T05:40:50.336Z,13.20
2019-02-24T05:41:29.424Z,12.70
2019-02-24T05:42:08.716Z,13.87
2019-02-24T05:42:47.851Z,12.90
2019-02-24T05:43:27.460Z,14.50
2019-02-24T05:44:07.076Z,14.00
2019-02-24T05:44:46.207Z,14.20
2019-02-24T05:45:24.885Z,19.03
2019-02-24T05:46:03.649Z,15.23
2019-02-24T05:46:42.713Z,13.30
2019-02-24T05:47:21.455Z,13.20
2019-02-24T05:48:00.107Z,13.70
2019-02-24T05:48:38.895Z,15.13
2019-02-24T05:49:17.739Z,14.93
2019-02-24T05:49:56.655Z,14.17
2019-02-24T05:50:35.338Z,14.00
2019-02-24T05:51:14.074Z,14.00
2019-02-24T05:52:11.654Z,14.40
2019-02-24T05:52:50.684Z,14.00
2019-02-24T05:53:29.995Z,13.70
2019-02-24T05:54:09.197Z,17.00
2019-02-24T05:54:48.716Z,13.17
2019-02-24T05:55:27.920Z,14.27
2019-02-24T05:56:06.887Z,13.77
2019-02-24T05:56:46.142Z,13.03
2019-02-24T05:57:25.444Z,13.93
2019-02-24T05:58:04.096Z,15.43
2019-02-24T05:58:42.715Z,16.80
2019-02-24T05:59:21.351Z,13.90
2019-02-24T06:00:00.618Z,12.43
2019-02-24T06:00:39.813Z,13.33
2019-02-24T06:01:21.140Z,12.70
2019-02-24T06:01:59.983Z,12.68
2019-02-24T06:02:39.248Z,14.90
2019-02-24T06:03:18.729Z,14.33
2019-02-24T06:03:57.527Z,12.70
2019-02-24T06:04:36.206Z,12.23
2019-02-24T06:05:14.920Z,12.23
2019-02-24T06:05:53.982Z,13.30
2019-02-24T06:06:32.629Z,13.03
2019-02-24T06:07:11.367Z,12.30
2019-02-24T06:07:50.229Z,12.50
2019-02-24T06:08:28.962Z,11.87
2019-02-24T06:09:08.431Z,13.78
2019-02-24T06:09:47.146Z,12.20
2019-02-24T06:10:26.412Z,12.05
2019-02-24T06:11:05.279Z,13.17
2019-02-24T06:11:44.379Z,11.13
2019-02-24T06:12:22.994Z,11.78
2019-02-24T06:13:02.543Z,11.97
2019-02-24T06:13:41.749Z,11.57
2019-02-24T06:14:20.898Z,11.68
2019-02-24T06:14:59.780Z,11.12
2019-02-24T06:15:38.568Z,11.70
2019-02-24T06:16:17.441Z,13.13
2019-02-24T06:16:56.247Z,11.43
2019-02-24T06:17:35.114Z,10.87
2019-02-24T06:18:14.478Z,11.13
2019-02-24T06:18:53.767Z,11.90
2019-02-24T06:19:32.470Z,10.80
2019-02-24T06:20:11.292Z,12.40
2019-02-24T06:20:50.196Z,12.60
2019-02-24T06:21:29.558Z,13.50
2019-02-24T06:22:08.269Z,11.60
2019-02-24T06:22:46.948Z,11.57
2019-02-24T06:23:25.629Z,10.60
2019-02-24T06:24:04.418Z,11.30
2019-02-24T06:24:43.903Z,12.83
2019-02-24T06:25:23.127Z,11.83
2019-02-24T06:26:02.180Z,11.30
2019-02-24T06:26:40.843Z,13.50
2019-02-24T06:27:19.584Z,11.10
2019-02-24T06:27:58.305Z,10.93
2019-02-24T06:28:37.064Z,11.00
2019-02-24T06:29:18.241Z,11.90
2019-02-24T06:30:04.557Z,12.13
2019-02-24T06:30:39.170Z,10.70
2019-02-24T06:31:17.879Z,14.10
2019-02-24T06:31:56.652Z,12.57
2019-02-24T06:32:36.675Z,11.77
2019-02-24T06:33:15.393Z,11.37
2019-02-24T06:33:54.104Z,11.70
2019-02-24T06:34:33.985Z,10.93
2019-02-24T06:35:12.541Z,11.00
2019-02-24T06:35:51.255Z,10.97
2019-02-24T06:36:29.942Z,10.97
2019-02-24T06:37:08.591Z,12.23
2019-02-24T06:37:47.345Z,11.13
2019-02-24T06:38:26.472Z,11.57
2019-02-24T06:39:05.262Z,10.60
2019-02-24T06:39:43.975Z,11.20
2019-02-24T06:40:23.269Z,12.40
2019-02-24T06:41:01.874Z,11.87
2019-02-24T06:41:40.575Z,11.60
2019-02-24T06:42:19.248Z,10.10
2019-02-24T06:42:57.992Z,12.43
2019-02-24T06:43:36.736Z,12.93
2019-02-24T06:44:15.520Z,11.80
2019-02-24T06:44:54.173Z,11.87
2019-02-24T06:45:32.848Z,11.40
2019-02-24T06:46:11.554Z,12.67
2019-02-24T06:46:50.405Z,12.37
2019-02-24T06:47:29.091Z,12.93
2019-02-24T06:48:07.792Z,12.60
2019-02-24T06:48:46.497Z,13.08
2019-02-24T06:49:25.231Z,12.10
2019-02-24T06:50:03.854Z,12.20
2019-02-24T06:51:09.856Z,11.50
2019-02-24T06:51:48.579Z,11.40
2019-02-24T06:52:28.095Z,11.97
2019-02-24T06:53:06.962Z,12.43
2019-02-24T06:53:45.582Z,13.50
2019-02-24T06:54:24.363Z,13.07
2019-02-24T06:55:04.315Z,14.70
2019-02-24T06:55:43.008Z,14.60
2019-02-24T06:56:22.246Z,14.43
2019-02-24T06:57:01.038Z,14.83
2019-02-24T06:57:39.645Z,14.60
2019-02-24T06:58:18.559Z,15.03
2019-02-24T06:58:57.968Z,14.90
2019-02-24T06:59:37.030Z,13.77
2019-02-24T07:00:16.128Z,14.83
2019-02-24T07:00:54.850Z,13.73
2019-02-24T07:01:33.639Z,14.27
2019-02-24T07:02:12.306Z,13.60
2019-02-24T07:02:51.706Z,14.93
2019-02-24T07:03:30.411Z,14.23
2019-02-24T07:04:09.304Z,15.13
2019-02-24T07:04:48.331Z,13.87
2019-02-24T07:05:27.455Z,13.90
2019-02-24T07:06:06.541Z,14.67
2019-02-24T07:06:45.818Z,15.57
2019-02-24T07:07:25.780Z,13.17
2019-02-24T07:08:04.516Z,13.43
2019-02-24T07:08:43.199Z,12.40
2019-02-24T07:09:22.387Z,13.30
2019-02-24T07:10:01.069Z,13.17
2019-02-24T07:10:39.678Z,13.00
2019-02-24T07:11:18.707Z,13.80
2019-02-24T07:11:58.041Z,13.07
2019-02-24T07:12:37.315Z,13.80
2019-02-24T07:13:16.471Z,12.87
2019-02-24T07:13:55.222Z,12.93
2019-02-24T07:14:52.579Z,13.03
2019-02-24T07:15:32.615Z,13.00
2019-02-24T07:16:11.345Z,13.87
2019-02-24T07:16:50.236Z,12.47
2019-02-24T07:17:29.414Z,12.57
2019-02-24T07:18:08.585Z,12.43
2019-02-24T07:18:47.765Z,12.20
2019-02-24T07:19:26.351Z,12.60
2019-02-24T07:20:05.084Z,13.47
2019-02-24T07:20:43.807Z,13.20
2019-02-24T07:21:22.907Z,12.73
2019-02-24T07:22:01.573Z,12.30
2019-02-24T07:22:40.343Z,12.60
2019-02-24T07:23:19.538Z,12.20
2019-02-24T07:23:59.036Z,13.30
2019-02-24T07:24:38.330Z,13.87
2019-02-24T07:25:17.037Z,13.10
2019-02-24T07:25:56.448Z,12.43
2019-02-24T07:26:35.740Z,14.13
2019-02-24T07:27:14.387Z,11.50
2019-02-24T07:27:53.633Z,13.17
2019-02-24T07:28:32.809Z,13.13
2019-02-24T07:29:11.458Z,12.70
2019-02-24T07:30:08.928Z,14.70
2019-02-24T07:30:48.208Z,12.70
2019-02-24T07:31:26.774Z,12.03
2019-02-24T07:32:05.477Z,11.77
2019-02-24T07:32:44.225Z,12.40
2019-02-24T07:33:23.423Z,11.77
2019-02-24T07:34:02.154Z,11.83
2019-02-24T07:34:41.041Z,11.97
2019-02-24T07:35:20.206Z,11.43
2019-02-24T07:35:59.954Z,13.10
2019-02-24T07:36:39.133Z,12.23
2019-02-24T07:37:18.144Z,13.03
2019-02-24T07:37:57.724Z,12.60
2019-02-24T07:38:36.399Z,12.60
2019-02-24T07:39:15.127Z,11.87
2019-02-24T07:39:53.866Z,12.67
2019-02-24T07:40:32.644Z,13.50
2019-02-24T07:41:11.518Z,14.73
2019-02-24T07:41:50.479Z,12.37
2019-02-24T07:42:29.923Z,12.50
2019-02-24T07:43:09.064Z,11.07
2019-02-24T07:43:48.190Z,11.50
2019-02-24T07:44:27.319Z,11.97
2019-02-24T07:45:06.866Z,12.33
2019-02-24T07:45:46.149Z,11.13
2019-02-24T07:46:25.376Z,11.33
2019-02-24T07:47:04.026Z,11.63
2019-02-24T07:47:42.666Z,12.70
2019-02-24T07:48:21.336Z,11.03
2019-02-24T07:49:00.907Z,12.27
2019-02-24T07:49:40.280Z,11.90
2019-02-24T07:50:19.769Z,14.23
2019-02-24T07:50:59.341Z,12.07
2019-02-24T07:51:38.728Z,11.73
2019-02-24T07:52:17.700Z,11.50
2019-02-24T07:52:57.069Z,11.60
2019-02-24T07:53:36.032Z,11.33
2019-02-24T07:54:15.192Z,12.00
2019-02-24T07:54:53.841Z,12.00
2019-02-24T07:55:32.423Z,12.67
2019-02-24T07:56:11.549Z,11.20
2019-02-24T07:56:50.744Z,12.00
2019-02-24T07:57:29.443Z,16.43
2019-02-24T07:58:08.575Z,11.47
2019-02-24T07:58:47.710Z,10.60
2019-02-24T07:59:26.631Z,11.13
2019-02-24T08:00:05.337Z,11.03
2019-02-24T08:00:44.076Z,12.03
2019-02-24T08:01:22.980Z,10.90
2019-02-24T08:02:01.796Z,11.90
2019-02-24T08:02:41.026Z,12.63
2019-02-24T08:03:19.617Z,10.47
2019-02-24T08:03:58.279Z,16.50
2019-02-24T08:04:37.246Z,14.03
2019-02-24T08:05:15.984Z,11.97
2019-02-24T08:05:54.659Z,10.60
2019-02-24T08:06:34.247Z,11.97
2019-02-24T08:07:13.402Z,12.50
2019-02-24T08:07:52.512Z,10.77
2019-02-24T08:08:31.777Z,11.00
2019-02-24T08:09:11.223Z,11.10
2019-02-24T08:09:50.030Z,11.83
2019-02-24T08:10:29.334Z,11.53
2019-02-24T08:11:08.104Z,11.90
2019-02-24T08:11:46.750Z,12.10
2019-02-24T08:12:25.435Z,10.80
2019-02-24T08:13:04.569Z,11.13
2019-02-24T08:13:44.089Z,11.60
2019-02-24T08:14:23.345Z,11.10
2019-02-24T08:15:02.487Z,10.93
2019-02-24T08:15:41.921Z,13.03
2019-02-24T08:16:21.314Z,11.70
2019-02-24T08:17:00.646Z,11.00
2019-02-24T08:17:40.129Z,10.27
2019-02-24T08:18:19.393Z,10.87
2019-02-24T08:18:58.841Z,11.10
2019-02-24T08:19:37.473Z,11.40
2019-02-24T08:20:16.150Z,11.50
2019-02-24T08:20:55.104Z,10.67
2019-02-24T08:21:33.856Z,12.30
2019-02-24T08:22:13.200Z,11.43
2019-02-24T08:22:52.329Z,10.70
2019-02-24T08:23:30.870Z,10.67
2019-02-24T08:24:10.153Z,11.00
2019-02-24T08:24:49.445Z,11.23
2019-02-24T08:25:28.870Z,10.63
2019-02-24T08:26:07.506Z,11.47
2019-02-24T08:26:46.178Z,11.10
2019-02-24T08:27:24.834Z,9.83
2019-02-24T08:28:03.511Z,11.47
2019-02-24T08:28:43.143Z,11.03
2019-02-24T08:29:22.389Z,11.83
2019-02-24T08:30:02.603Z,11.03
2019-02-24T08:30:42.126Z,10.97
2019-02-24T08:31:21.451Z,10.60
2019-02-24T08:32:00.103Z,11.53
2019-02-24T08:32:39.471Z,11.33
2019-02-24T08:33:18.503Z,11.40